Time;durP1;ratioP1;P1;durP2;ratioP2;P2;SDS_P1;SDS_P2;PMS_P1;PMS_P2;Temp;Humidity;BMP_temperature;BMP_pressure;BME280_temperature;BME280_humidity;BME280_pressure;Samples;Min_cycle;Max_cycle;Signal;HPM_P1;HPM_P2
2022/07/30 00:01:59;;;;;;;6.22;4.63;;;14.90;99.90;;;;;;4842502;29;20141;-65
2022/07/30 00:04:25;;;;;;;7.90;5.20;;;14.90;99.90;;;;;;4825707;29;20129;-65
2022/07/30 00:06:51;;;;;;;6.55;5.10;;;14.80;99.90;;;;;;4835644;29;20062;-66
2022/07/30 00:09:16;;;;;;;5.90;4.95;;;14.80;99.90;;;;;;4834874;29;20066;-66
2022/07/30 00:11:42;;;;;;;6.68;5.50;;;14.70;99.90;;;;;;4829903;29;20126;-65
2022/07/30 00:14:08;;;;;;;6.00;5.20;;;14.70;99.90;;;;;;4834360;29;20046;-66
2022/07/30 00:16:34;;;;;;;6.18;5.32;;;14.60;99.90;;;;;;4812470;29;20107;-65
2022/07/30 00:19:00;;;;;;;5.90;5.40;;;14.50;99.90;;;;;;4825801;29;20058;-66
2022/07/30 00:21:26;;;;;;;5.10;4.70;;;14.50;99.90;;;;;;4814132;29;20143;-66
2022/07/30 00:23:51;;;;;;;5.90;5.00;;;14.50;99.90;;;;;;4830700;29;20495;-66
2022/07/30 00:26:17;;;;;;;4.60;4.20;;;14.50;99.90;;;;;;4837321;29;20050;-66
2022/07/30 00:28:42;;;;;;;7.20;4.88;;;14.40;99.90;;;;;;4817414;29;20493;-66
2022/07/30 00:31:08;;;;;;;5.95;4.88;;;14.40;99.90;;;;;;4831494;29;20076;-65
2022/07/30 00:33:33;;;;;;;8.27;5.30;;;14.40;99.90;;;;;;4816691;29;20055;-66
2022/07/30 00:35:59;;;;;;;6.03;5.38;;;14.30;99.90;;;;;;4837225;29;20140;-65
2022/07/30 00:38:24;;;;;;;5.60;5.13;;;14.30;99.90;;;;;;4811137;29;20409;-67
2022/07/30 00:40:50;;;;;;;7.28;6.57;;;14.20;99.90;;;;;;4830514;29;20066;-65
2022/07/30 00:43:16;;;;;;;6.88;5.93;;;14.10;99.90;;;;;;4811105;29;20061;-66
2022/07/30 00:45:43;;;;;;;6.70;5.97;;;14.10;99.90;;;;;;4841735;29;20103;-66
2022/07/30 00:48:14;;;;;;;7.35;5.80;;;14.10;99.90;;;;;;4824934;29;20065;-66
2022/07/30 00:50:41;;;;;;;5.55;4.93;;;14.10;99.90;;;;;;4822207;29;20058;-66
2022/07/30 00:53:06;;;;;;;7.35;5.63;;;14.00;99.90;;;;;;4801492;29;20054;-66
2022/07/30 00:55:33;;;;;;;6.13;5.53;;;14.00;99.90;;;;;;4835816;29;20053;-65
2022/07/30 00:57:59;;;;;;;6.18;5.57;;;13.90;99.90;;;;;;4836171;29;20068;-66
2022/07/30 01:00:25;;;;;;;6.55;5.80;;;13.90;99.90;;;;;;4833334;29;20058;-66
2022/07/30 01:02:50;;;;;;;6.53;5.93;;;13.90;99.90;;;;;;4839007;29;20057;-66
2022/07/30 01:05:17;;;;;;;6.70;6.00;;;13.90;99.90;;;;;;4838650;29;20419;-66
2022/07/30 01:07:43;;;;;;;6.60;5.97;;;13.90;99.90;;;;;;4841839;29;20053;-66
2022/07/30 01:10:11;;;;;;;7.00;6.05;;;13.90;99.90;;;;;;4836675;29;20061;-67
2022/07/30 01:12:38;;;;;;;7.55;6.82;;;13.90;99.90;;;;;;4836923;29;20064;-66
2022/07/30 01:15:06;;;;;;;6.32;5.63;;;13.90;99.90;;;;;;4842291;29;20160;-66
2022/07/30 01:17:33;;;;;;;14.90;8.77;;;13.90;99.90;;;;;;4840387;29;20127;-66
2022/07/30 01:20:03;;;;;;;9.38;8.13;;;13.80;99.90;;;;;;4840395;29;20527;-67
2022/07/30 01:22:36;;;;;;;8.73;7.35;;;13.90;99.90;;;;;;4840254;29;20114;-66
2022/07/30 01:25:27;;;;;;;8.40;6.82;;;13.80;99.90;;;;;;4842242;29;20376;-66
2022/07/30 01:27:58;;;;;;;7.68;6.85;;;13.80;99.90;;;;;;4838265;29;20065;-66
2022/07/30 01:30:27;;;;;;;7.53;6.40;;;13.80;99.90;;;;;;4841348;29;20133;-66
2022/07/30 01:32:55;;;;;;;7.68;6.70;;;13.90;99.90;;;;;;4841201;29;20058;-66
2022/07/30 01:35:23;;;;;;;8.68;6.43;;;13.80;99.90;;;;;;4840727;29;20516;-66
2022/07/30 01:37:51;;;;;;;6.68;5.95;;;13.80;99.90;;;;;;4839673;29;20061;-65
2022/07/30 01:40:19;;;;;;;8.00;6.00;;;13.80;99.90;;;;;;4841960;29;20046;-67
2022/07/30 01:42:48;;;;;;;7.53;6.78;;;13.80;99.90;;;;;;4840772;29;20097;-66
2022/07/30 01:45:16;;;;;;;8.18;6.85;;;13.70;99.90;;;;;;4843572;29;20046;-65
2022/07/30 01:47:42;;;;;;;7.97;7.18;;;13.70;99.90;;;;;;4843622;29;20551;-65
2022/07/30 01:50:14;;;;;;;7.05;6.35;;;13.70;99.90;;;;;;4844745;29;20077;-66
2022/07/30 01:52:46;;;;;;;7.38;6.57;;;13.70;99.90;;;;;;4843521;29;20492;-66
2022/07/30 01:55:16;;;;;;;7.93;6.85;;;13.70;99.90;;;;;;4843805;29;20057;-66
2022/07/30 01:57:45;;;;;;;7.35;6.53;;;13.60;99.90;;;;;;4844177;29;20491;-66
2022/07/30 02:00:12;;;;;;;8.05;6.90;;;13.60;99.90;;;;;;4843119;29;20425;-66
2022/07/30 02:02:40;;;;;;;7.18;6.47;;;13.60;99.90;;;;;;4842411;29;20053;-66
2022/07/30 02:05:07;;;;;;;7.00;6.30;;;13.50;99.90;;;;;;4829041;29;20096;-66
2022/07/30 02:07:46;;;;;;;7.82;7.03;;;13.50;99.90;;;;;;4843837;29;20093;-66
2022/07/30 02:10:18;;;;;;;7.70;6.82;;;13.50;99.90;;;;;;4843812;29;20058;-67
2022/07/30 02:12:49;;;;;;;7.95;7.15;;;13.50;99.90;;;;;;4843025;29;20129;-66
2022/07/30 02:15:30;;;;;;;7.32;6.63;;;13.50;99.90;;;;;;4843140;29;20053;-65
2022/07/30 02:18:01;;;;;;;10.95;8.45;;;13.50;99.90;;;;;;4845160;29;20081;-66
2022/07/30 02:20:29;;;;;;;7.40;6.70;;;13.40;99.90;;;;;;4843062;29;20064;-65
2022/07/30 02:23:00;;;;;;;7.72;6.93;;;13.40;99.90;;;;;;4843334;29;20124;-66
2022/07/30 02:25:27;;;;;;;8.15;7.35;;;13.40;99.90;;;;;;4839389;29;20052;-66
2022/07/30 02:27:57;;;;;;;8.35;7.20;;;13.40;99.90;;;;;;4827793;29;20050;-65
2022/07/30 02:30:26;;;;;;;10.57;8.00;;;13.40;99.90;;;;;;4842763;29;20137;-65
2022/07/30 02:32:58;;;;;;;11.52;7.95;;;13.40;99.90;;;;;;4844666;29;20162;-66
2022/07/30 02:35:26;;;;;;;8.85;8.05;;;13.40;99.90;;;;;;4842961;29;20068;-65
2022/07/30 02:37:53;;;;;;;9.27;8.38;;;13.40;99.90;;;;;;4841364;29;20049;-66
2022/07/30 02:40:21;;;;;;;10.52;8.85;;;13.40;99.90;;;;;;4842569;29;20061;-66
2022/07/30 02:42:51;;;;;;;9.45;8.57;;;13.40;99.90;;;;;;4842602;29;20495;-67
2022/07/30 02:45:18;;;;;;;8.88;7.97;;;13.40;99.90;;;;;;4845000;29;20129;-64
2022/07/30 02:47:52;;;;;;;8.48;7.57;;;13.40;99.90;;;;;;4841612;29;20476;-66
2022/07/30 02:50:20;;;;;;;8.15;7.45;;;13.40;99.90;;;;;;4842061;29;20046;-66
2022/07/30 02:52:46;;;;;;;9.82;8.27;;;13.40;99.90;;;;;;4842009;29;20053;-66
2022/07/30 02:55:12;;;;;;;8.82;8.02;;;13.30;99.90;;;;;;4842247;29;20484;-66
2022/07/30 02:57:41;;;;;;;9.23;7.88;;;13.30;99.90;;;;;;4843283;29;20134;-66
2022/07/30 03:00:08;;;;;;;8.77;7.88;;;13.20;99.90;;;;;;4844583;29;20402;-67
2022/07/30 03:02:35;;;;;;;9.43;8.35;;;13.20;99.90;;;;;;4841612;29;20046;-66
2022/07/30 03:05:03;;;;;;;10.18;9.18;;;13.20;99.90;;;;;;4843360;29;20050;-66
2022/07/30 03:07:30;;;;;;;9.82;8.82;;;13.20;99.90;;;;;;4842748;29;20217;-65
2022/07/30 03:09:56;;;;;;;8.93;8.02;;;13.20;99.90;;;;;;4838481;29;20389;-64
2022/07/30 03:12:24;;;;;;;8.02;7.32;;;13.20;99.90;;;;;;4840308;29;20050;-67
2022/07/30 03:14:50;;;;;;;9.80;8.90;;;13.20;99.90;;;;;;4843187;29;20054;-65
2022/07/30 03:17:18;;;;;;;9.30;8.40;;;13.20;99.90;;;;;;4842390;29;20106;-64
2022/07/30 03:19:45;;;;;;;7.97;7.28;;;13.10;99.90;;;;;;4843535;29;20046;-64
2022/07/30 03:22:13;;;;;;;7.70;6.75;;;13.10;99.90;;;;;;4841149;29;20064;-66
2022/07/30 03:24:42;;;;;;;8.98;7.70;;;13.10;99.90;;;;;;4842509;29;20488;-65
2022/07/30 03:27:08;;;;;;;9.45;8.50;;;13.10;99.90;;;;;;4841855;29;20058;-66
2022/07/30 03:29:37;;;;;;;10.82;8.55;;;13.00;99.90;;;;;;4840292;29;20050;-64
2022/07/30 03:32:04;;;;;;;9.85;8.07;;;13.00;99.90;;;;;;4829293;29;20057;-65
2022/07/30 03:34:33;;;;;;;10.85;9.43;;;13.00;99.90;;;;;;4843546;29;20061;-65
2022/07/30 03:37:00;;;;;;;10.50;9.50;;;13.10;99.90;;;;;;4841800;29;20054;-65
2022/07/30 03:39:26;;;;;;;12.23;10.70;;;13.10;99.90;;;;;;4842908;29;20054;-65
2022/07/30 03:41:53;;;;;;;13.43;10.35;;;13.10;99.90;;;;;;4842386;29;20090;-65
2022/07/30 03:44:20;;;;;;;11.27;10.27;;;13.10;99.90;;;;;;4838000;29;20062;-65
2022/07/30 03:46:49;;;;;;;11.93;8.93;;;13.10;99.90;;;;;;4838326;29;20053;-65
2022/07/30 03:49:16;;;;;;;14.38;11.13;;;13.20;99.90;;;;;;4843033;29;20065;-65
2022/07/30 03:51:42;;;;;;;10.85;9.75;;;13.20;99.90;;;;;;4842208;29;20081;-65
2022/07/30 03:54:10;;;;;;;11.32;10.10;;;13.20;99.90;;;;;;4842217;29;20049;-66
2022/07/30 03:56:37;;;;;;;9.70;8.73;;;13.20;99.90;;;;;;4841579;29;20049;-64
2022/07/30 03:59:03;;;;;;;8.77;7.97;;;13.20;99.90;;;;;;4832830;29;20154;-65
2022/07/30 04:01:29;;;;;;;9.75;8.77;;;13.10;99.90;;;;;;4824662;29;20067;-65
2022/07/30 04:03:55;;;;;;;10.18;9.15;;;13.10;99.90;;;;;;4856358;29;20057;-65
2022/07/30 04:06:20;;;;;;;13.23;9.30;;;13.10;99.90;;;;;;4838198;29;20046;-66
2022/07/30 04:08:46;;;;;;;9.88;8.32;;;13.10;99.90;;;;;;4842894;29;20058;-65
2022/07/30 04:11:12;;;;;;;9.50;8.70;;;13.10;99.90;;;;;;4841857;29;20053;-65
2022/07/30 04:13:37;;;;;;;10.35;9.00;;;13.10;99.90;;;;;;4842775;29;20053;-65
2022/07/30 04:16:29;;;;;;;10.02;9.13;;;13.10;99.90;;;;;;4842236;29;20057;-65
2022/07/30 04:18:56;;;;;;;8.90;8.10;;;13.10;99.90;;;;;;4827259;29;20065;-65
2022/07/30 04:21:24;;;;;;;11.75;10.45;;;13.10;99.90;;;;;;4840903;29;20537;-66
2022/07/30 04:23:50;;;;;;;11.02;9.05;;;13.10;99.90;;;;;;4842970;29;20057;-65
2022/07/30 04:26:17;;;;;;;9.93;8.77;;;13.10;99.90;;;;;;4840978;29;20491;-65
2022/07/30 04:28:43;;;;;;;12.20;10.15;;;13.10;99.90;;;;;;4841082;29;20062;-65
2022/07/30 04:31:10;;;;;;;10.88;9.77;;;13.20;99.90;;;;;;4841221;29;20062;-65
2022/07/30 04:33:36;;;;;;;10.75;9.75;;;13.20;99.90;;;;;;4840850;29;20062;-66
2022/07/30 04:36:08;;;;;;;12.98;10.25;;;13.30;99.90;;;;;;4840545;29;20072;-65
2022/07/30 04:38:35;;;;;;;11.50;9.52;;;13.30;99.90;;;;;;4841714;29;20437;-65
2022/07/30 04:41:01;;;;;;;10.95;9.85;;;13.40;99.90;;;;;;4840801;29;20064;-65
2022/07/30 04:43:26;;;;;;;12.07;10.70;;;13.50;99.90;;;;;;4838869;29;20060;-65
2022/07/30 04:45:52;;;;;;;12.73;9.43;;;13.50;99.90;;;;;;4840456;29;20054;-65
2022/07/30 04:48:18;;;;;;;12.90;10.20;;;13.50;99.90;;;;;;4841135;29;20057;-65
2022/07/30 04:50:48;;;;;;;12.07;9.98;;;13.60;99.90;;;;;;4841072;29;20061;-65
2022/07/30 04:53:14;;;;;;;12.35;10.18;;;13.70;99.90;;;;;;4841425;29;20057;-66
2022/07/30 04:55:44;;;;;;;11.23;9.80;;;13.70;99.90;;;;;;4841695;29;20049;-64
2022/07/30 04:58:11;;;;;;;10.50;9.48;;;13.80;99.90;;;;;;4837969;29;20049;-66
2022/07/30 05:00:38;;;;;;;10.05;9.00;;;13.90;99.90;;;;;;4839976;29;20072;-64
2022/07/30 05:03:06;;;;;;;9.45;8.55;;;13.90;99.90;;;;;;4834522;29;20051;-64
2022/07/30 05:05:32;;;;;;;8.73;7.95;;;14.00;99.90;;;;;;4829335;29;20077;-65
2022/07/30 05:07:59;;;;;;;10.65;9.55;;;14.00;99.90;;;;;;4826584;29;20519;-64
2022/07/30 05:10:26;;;;;;;9.27;8.35;;;14.10;99.90;;;;;;4826936;29;20050;-65
2022/07/30 05:12:51;;;;;;;9.63;8.77;;;14.10;99.90;;;;;;4824152;29;20149;-64
2022/07/30 05:15:17;;;;;;;9.30;8.50;;;14.20;99.90;;;;;;4806735;29;20074;-65
2022/07/30 05:17:44;;;;;;;9.52;8.68;;;14.30;99.90;;;;;;4826376;29;20058;-65
2022/07/30 05:20:10;;;;;;;9.30;8.50;;;14.40;99.90;;;;;;4835093;29;20093;-65
2022/07/30 05:22:35;;;;;;;8.85;8.05;;;14.50;99.90;;;;;;4841372;29;20481;-65
2022/07/30 05:25:01;;;;;;;15.43;9.48;;;14.60;99.90;;;;;;4829729;29;20096;-65
2022/07/30 05:27:26;;;;;;;11.85;8.77;;;14.80;99.90;;;;;;4817879;29;20060;-65
2022/07/30 05:29:52;;;;;;;9.75;8.63;;;14.80;99.90;;;;;;4815956;29;20057;-65
2022/07/30 05:32:17;;;;;;;8.95;8.15;;;14.90;99.90;;;;;;4825810;29;20050;-64
2022/07/30 05:34:43;;;;;;;11.93;8.82;;;15.00;99.90;;;;;;4829246;29;20133;-65
2022/07/30 05:37:08;;;;;;;9.30;8.43;;;15.00;99.90;;;;;;4829027;29;20182;-65
2022/07/30 05:39:34;;;;;;;8.82;8.00;;;15.10;99.90;;;;;;4840832;29;20053;-65
2022/07/30 05:42:00;;;;;;;9.38;7.82;;;15.20;99.90;;;;;;4838854;29;20114;-64
2022/07/30 05:44:25;;;;;;;9.35;8.30;;;15.30;99.90;;;;;;4823923;29;20500;-66
2022/07/30 05:46:51;;;;;;;9.35;7.85;;;15.40;99.90;;;;;;4833741;29;21673;-65
2022/07/30 05:49:16;;;;;;;9.90;8.45;;;15.50;99.90;;;;;;4812084;29;20130;-65
2022/07/30 05:51:42;;;;;;;10.15;8.00;;;15.70;99.90;;;;;;4832933;29;20140;-66
2022/07/30 05:54:08;;;;;;;10.07;7.55;;;15.70;99.90;;;;;;4822896;29;20134;-65
2022/07/30 05:56:34;;;;;;;8.63;7.78;;;15.80;99.90;;;;;;4833044;29;20066;-65
2022/07/30 05:59:01;;;;;;;7.88;7.18;;;15.90;99.90;;;;;;4801425;29;20716;-66
2022/07/30 06:01:56;;;;;;;8.13;7.43;;;15.90;99.90;;;;;;4814775;29;20448;-65
2022/07/30 06:04:22;;;;;;;13.80;7.38;;;16.10;99.90;;;;;;4815785;29;20102;-66
2022/07/30 06:06:48;;;;;;;8.63;7.82;;;16.20;99.90;;;;;;4813385;29;20090;-66
2022/07/30 06:09:14;;;;;;;8.50;7.70;;;16.30;99.90;;;;;;4802290;29;20102;-64
2022/07/30 06:11:40;;;;;;;9.23;8.32;;;16.60;99.90;;;;;;4818307;29;20088;-65
2022/07/30 06:14:06;;;;;;;8.00;7.20;;;16.60;99.90;;;;;;4814049;29;20055;-65
2022/07/30 06:25:30;;;;;;;10.32;7.47;;;16.90;99.90;;;;;;4815848;29;20117;-65
2022/07/30 06:40:20;;;;;;;11.40;8.55;;;17.10;99.90;;;;;;4826046;29;20102;-66
2022/07/30 06:43:11;;;;;;;15.18;8.52;;;17.20;99.90;;;;;;4809214;29;20456;-66
2022/07/30 06:45:38;;;;;;;10.18;8.50;;;17.20;99.90;;;;;;4806971;29;20566;-66
2022/07/30 06:51:37;;;;;;;9.27;8.35;;;17.50;99.90;;;;;;4807590;29;20061;-67
2022/07/30 06:54:03;;;;;;;10.20;8.77;;;17.60;99.90;;;;;;4808045;29;20043;-66
2022/07/30 06:56:28;;;;;;;11.02;8.65;;;17.80;99.90;;;;;;4807877;29;20053;-66
2022/07/30 06:58:54;;;;;;;10.55;9.50;;;17.80;99.90;;;;;;4821293;29;20069;-66
2022/07/30 07:01:22;;;;;;;11.85;8.77;;;17.90;99.90;;;;;;4832450;29;20085;-66
2022/07/30 07:04:13;;;;;;;12.20;9.50;;;18.10;99.90;;;;;;4841502;29;20474;-66
2022/07/30 07:06:39;;;;;;;13.75;9.57;;;18.10;99.90;;;;;;4841599;29;20066;-67
2022/07/30 07:09:04;;;;;;;13.18;10.30;;;18.20;99.90;;;;;;4843202;29;20058;-66
2022/07/30 07:11:30;;;;;;;10.18;9.18;;;18.20;99.90;;;;;;4844349;29;20411;-66
2022/07/30 07:13:56;;;;;;;10.25;9.25;;;18.20;99.90;;;;;;4842165;29;20058;-66
2022/07/30 07:16:24;;;;;;;13.30;9.73;;;18.30;99.90;;;;;;4844037;29;20444;-66
2022/07/30 07:18:51;;;;;;;11.27;9.57;;;18.40;99.90;;;;;;4844123;29;20057;-66
2022/07/30 07:21:17;;;;;;;10.68;9.63;;;18.40;99.90;;;;;;4843421;29;20057;-66
2022/07/30 07:23:43;;;;;;;9.93;8.90;;;18.50;99.90;;;;;;4842797;29;20050;-66
2022/07/30 07:26:09;;;;;;;9.82;8.65;;;18.50;99.90;;;;;;4842148;29;20488;-66
2022/07/30 07:28:35;;;;;;;10.63;9.60;;;18.60;99.90;;;;;;4843887;29;20061;-66
2022/07/30 07:31:01;;;;;;;13.23;9.13;;;18.70;99.90;;;;;;4843193;29;20101;-67
2022/07/30 07:33:27;;;;;;;9.52;8.52;;;18.80;99.90;;;;;;4842380;29;20137;-66
2022/07/30 07:35:53;;;;;;;10.50;9.27;;;18.80;99.90;;;;;;4842966;29;20133;-65
2022/07/30 07:38:20;;;;;;;11.95;9.38;;;18.90;99.90;;;;;;4843746;29;20114;-67
2022/07/30 07:40:46;;;;;;;10.20;8.93;;;18.90;99.90;;;;;;4842818;29;20484;-66
2022/07/30 07:43:12;;;;;;;12.05;8.93;;;19.10;99.90;;;;;;4841959;29;20061;-66
2022/07/30 07:45:38;;;;;;;9.48;8.43;;;19.20;99.90;;;;;;4843124;29;20513;-66
2022/07/30 07:48:04;;;;;;;9.90;7.60;;;19.30;99.90;;;;;;4843554;29;20171;-66
2022/07/30 07:50:29;;;;;;;11.10;8.07;;;19.50;99.90;;;;;;4843587;29;20054;-67
2022/07/30 07:52:55;;;;;;;8.80;7.53;;;19.60;99.90;;;;;;4841629;29;20408;-65
2022/07/30 07:55:21;;;;;;;7.78;7.05;;;19.70;99.90;;;;;;4843107;29;20060;-66
2022/07/30 07:57:47;;;;;;;8.52;7.25;;;19.60;99.90;;;;;;4841667;29;20132;-66
2022/07/30 08:00:14;;;;;;;8.52;7.57;;;19.70;99.90;;;;;;4842620;29;20137;-66
2022/07/30 08:02:40;;;;;;;10.00;8.00;;;19.80;99.90;;;;;;4841876;29;20062;-66
2022/07/30 08:05:07;;;;;;;8.38;7.13;;;19.90;99.90;;;;;;4842072;29;20054;-66
2022/07/30 08:07:33;;;;;;;10.10;7.28;;;19.90;99.90;;;;;;4842447;29;20499;-66
2022/07/30 08:09:58;;;;;;;9.65;7.10;;;19.90;99.90;;;;;;4857603;29;20065;-65
2022/07/30 08:12:24;;;;;;;8.98;6.85;;;20.00;99.90;;;;;;4842347;29;20042;-66
2022/07/30 08:14:50;;;;;;;9.48;6.47;;;20.10;99.90;;;;;;4841784;29;20380;-66
2022/07/30 08:17:16;;;;;;;10.13;6.65;;;20.10;99.90;;;;;;4842760;29;20098;-66
2022/07/30 08:19:41;;;;;;;6.82;5.72;;;20.30;99.90;;;;;;4842676;29;20058;-66
2022/07/30 08:22:07;;;;;;;8.57;5.93;;;20.20;99.90;;;;;;4841601;29;20062;-66
2022/07/30 08:24:32;;;;;;;8.68;6.05;;;20.50;99.90;;;;;;4840880;29;20046;-66
2022/07/30 08:27:57;;;;;;;11.40;6.75;;;20.80;99.90;;;;;;4840641;29;20467;-65
2022/07/30 08:30:31;;;;;;;5.88;5.28;;;21.00;99.90;;;;;;4842139;29;20053;-66
2022/07/30 08:32:57;;;;;;;6.78;5.10;;;21.20;99.90;;;;;;4842066;29;20054;-67
2022/07/30 08:35:23;;;;;;;9.88;5.03;;;21.20;99.90;;;;;;4843042;29;20057;-66
2022/07/30 08:38:13;;;;;;;6.60;4.53;;;21.40;99.90;;;;;;4840804;29;20062;-66
2022/07/30 08:40:39;;;;;;;9.23;4.93;;;21.30;99.90;;;;;;4841750;29;20061;-67
2022/07/30 08:43:06;;;;;;;6.47;4.10;;;21.50;99.90;;;;;;4841716;29;20050;-66
2022/07/30 08:45:33;;;;;;;5.97;4.32;;;21.60;99.90;;;;;;4842464;29;20068;-65
2022/07/30 08:48:07;;;;;;;7.13;3.97;;;21.90;99.90;;;;;;4840738;29;20058;-65
2022/07/30 08:50:33;;;;;;;10.13;4.22;;;21.90;99.90;;;;;;4841549;29;20149;-66
2022/07/30 08:53:00;;;;;;;6.07;3.80;;;21.70;99.90;;;;;;4840163;29;20396;-67
2022/07/30 08:55:26;;;;;;;7.03;4.28;;;21.70;99.90;;;;;;4840630;29;20453;-67
2022/07/30 08:57:52;;;;;;;8.38;4.68;;;21.80;99.90;;;;;;4842291;29;20053;-67
2022/07/30 09:00:18;;;;;;;5.00;4.50;;;21.80;99.90;;;;;;4842300;29;20062;-67
2022/07/30 09:02:44;;;;;;;7.40;3.95;;;21.90;99.90;;;;;;4841751;29;20476;-66
2022/07/30 09:05:10;;;;;;;8.00;4.10;;;21.90;99.90;;;;;;4840280;29;20108;-66
2022/07/30 09:07:37;;;;;;;7.65;3.80;;;21.90;99.90;;;;;;4841519;29;20058;-66
2022/07/30 09:10:04;;;;;;;11.77;4.38;;;22.00;99.90;;;;;;4840952;29;20098;-66
2022/07/30 09:12:38;;;;;;;6.07;3.42;;;22.10;99.90;;;;;;4840910;29;20065;-66
2022/07/30 09:15:16;;;;;;;4.53;3.13;;;22.30;99.90;;;;;;4842088;29;20129;-66
2022/07/30 09:17:54;;;;;;;5.25;3.20;;;22.40;99.90;;;;;;4842190;29;20093;-66
2022/07/30 09:20:23;;;;;;;5.57;3.22;;;22.40;99.90;;;;;;4837164;29;20491;-66
2022/07/30 09:22:55;;;;;;;5.55;3.08;;;22.50;99.90;;;;;;4838831;29;20058;-66
2022/07/30 09:25:40;;;;;;;4.35;2.97;;;22.40;99.90;;;;;;4840074;29;20050;-66
2022/07/30 09:28:08;;;;;;;3.92;3.00;;;22.60;99.90;;;;;;4842579;29;20086;-66
2022/07/30 09:30:48;;;;;;;4.47;3.05;;;22.70;99.90;;;;;;4839917;29;20077;-66
2022/07/30 09:33:14;;;;;;;6.18;3.42;;;22.90;99.90;;;;;;4842087;29;20054;-66
2022/07/30 09:35:41;;;;;;;3.67;2.72;;;23.00;99.90;;;;;;4840221;29;20488;-66
2022/07/30 09:38:07;;;;;;;5.03;2.88;;;23.10;99.90;;;;;;4841116;29;20058;-67
2022/07/30 09:40:33;;;;;;;7.35;3.20;;;23.20;99.90;;;;;;4842110;29;20061;-66
2022/07/30 09:43:10;;;;;;;5.28;2.88;;;23.20;99.90;;;;;;4841905;29;20061;-66
2022/07/30 09:45:49;;;;;;;6.82;3.20;;;23.30;99.90;;;;;;4842098;29;20054;-66
2022/07/30 09:48:22;;;;;;;4.32;2.88;;;23.30;99.90;;;;;;4841703;29;20058;-67
2022/07/30 09:50:50;;;;;;;4.63;2.47;;;23.10;99.90;;;;;;4841544;29;20065;-67
2022/07/30 09:53:16;;;;;;;3.95;2.80;;;23.30;99.90;;;;;;4840853;29;20050;-66
2022/07/30 09:55:41;;;;;;;5.05;3.08;;;23.50;99.90;;;;;;4841829;29;20064;-66
2022/07/30 09:58:08;;;;;;;6.63;2.75;;;23.60;99.90;;;;;;4842036;29;20057;-67
2022/07/30 10:00:35;;;;;;;6.03;2.60;;;23.70;99.90;;;;;;4840510;29;20125;-66
2022/07/30 10:03:18;;;;;;;5.20;2.60;;;23.70;99.90;;;;;;4841905;29;20062;-67
2022/07/30 10:05:57;;;;;;;4.03;2.65;;;23.80;99.90;;;;;;4843846;29;20107;-67
2022/07/30 10:08:42;;;;;;;4.90;2.55;;;23.90;99.90;;;;;;4843265;29;20491;-67
2022/07/30 10:11:13;;;;;;;5.28;2.42;;;24.10;99.90;;;;;;4843083;29;20054;-66
2022/07/30 10:13:40;;;;;;;4.78;2.85;;;24.20;99.90;;;;;;4844023;29;20217;-66
2022/07/30 10:16:15;;;;;;;2.70;2.50;;;24.30;99.90;;;;;;4845132;29;20141;-67
2022/07/30 10:19:31;;;;;;;6.28;2.83;;;24.30;99.90;;;;;;4844839;29;20555;-66
2022/07/30 10:21:58;;;;;;;4.80;2.58;;;24.40;99.90;;;;;;4826716;29;20137;-66
2022/07/30 10:24:24;;;;;;;4.38;2.28;;;24.50;99.90;;;;;;4842516;29;20050;-67
2022/07/30 10:26:51;;;;;;;3.35;2.58;;;24.20;99.90;;;;;;4844040;29;20046;-67
2022/07/30 10:29:18;;;;;;;4.90;2.40;;;24.20;99.90;;;;;;4839918;29;20106;-66
2022/07/30 10:31:45;;;;;;;4.28;2.58;;;24.10;99.90;;;;;;4843108;29;20046;-66
2022/07/30 10:34:15;;;;;;;4.78;2.40;;;24.10;99.90;;;;;;4845550;29;20118;-67
2022/07/30 10:36:48;;;;;;;5.03;2.72;;;24.10;99.90;;;;;;4844068;29;20054;-66
2022/07/30 10:39:20;;;;;;;4.72;2.60;;;24.10;99.90;;;;;;4844641;29;20437;-66
2022/07/30 10:41:55;;;;;;;2.97;2.28;;;24.20;99.90;;;;;;4842649;29;20061;-66
2022/07/30 10:44:50;;;;;;;6.15;2.50;;;24.50;99.90;;;;;;4845020;29;20054;-67
2022/07/30 10:47:17;;;;;;;4.00;2.40;;;24.50;99.90;;;;;;4843951;29;20140;-66
2022/07/30 10:50:08;;;;;;;4.55;2.38;;;24.40;99.90;;;;;;4842808;29;20411;-66
2022/07/30 10:53:04;;;;;;;8.82;2.67;;;24.50;99.90;;;;;;4843721;29;20190;-66
2022/07/30 10:55:34;;;;;;;2.55;1.83;;;24.60;99.90;;;;;;4843016;29;20500;-67
2022/07/30 10:58:00;;;;;;;3.63;2.28;;;24.70;99.90;;;;;;4840472;29;20089;-66
2022/07/30 11:00:28;;;;;;;5.03;2.22;;;24.50;99.90;;;;;;4843049;29;20061;-66
2022/07/30 11:03:24;;;;;;;3.22;2.20;;;24.50;99.90;;;;;;4843009;29;20523;-67
2022/07/30 11:05:51;;;;;;;2.97;2.50;;;24.70;99.90;;;;;;4842864;29;20065;-66
2022/07/30 11:08:51;;;;;;;3.72;2.60;;;24.70;99.90;;;;;;4840964;29;20129;-66
2022/07/30 11:11:43;;;;;;;6.00;2.72;;;24.70;99.90;;;;;;4843966;29;20045;-66
2022/07/30 11:14:08;;;;;;;3.72;2.38;;;24.80;99.90;;;;;;4843134;29;20086;-66
2022/07/30 11:16:34;;;;;;;3.38;2.30;;;24.50;99.90;;;;;;4842330;29;20050;-66
2022/07/30 11:19:31;;;;;;;2.85;2.10;;;24.60;99.90;;;;;;4843821;29;20057;-66
2022/07/30 11:22:48;;;;;;;4.60;2.25;;;24.80;99.90;;;;;;4773941;29;20059;-67
2022/07/30 11:25:42;;;;;;;3.00;2.05;;;24.70;97.70;;;;;;4811210;29;20050;-66
2022/07/30 11:28:38;;;;;;;3.35;2.03;;;24.50;99.10;;;;;;4841283;29;20449;-66
2022/07/30 11:31:30;;;;;;;4.07;2.40;;;24.40;99.30;;;;;;4823864;29;20480;-66
2022/07/30 11:34:18;;;;;;;3.35;2.28;;;24.30;98.90;;;;;;4823760;29;20065;-66
2022/07/30 11:37:02;;;;;;;2.90;2.08;;;24.30;95.70;;;;;;4836105;29;20132;-67
2022/07/30 11:39:52;;;;;;;3.05;2.10;;;24.20;98.00;;;;;;4842175;29;20552;-67
2022/07/30 11:42:29;;;;;;;2.80;2.10;;;24.10;99.10;;;;;;4842965;29;20042;-67
2022/07/30 11:45:14;;;;;;;4.50;2.13;;;24.20;99.90;;;;;;4843269;29;20062;-66
2022/07/30 11:47:42;;;;;;;3.60;2.00;;;24.50;99.90;;;;;;4843514;29;20066;-68
2022/07/30 11:50:20;;;;;;;2.72;2.03;;;24.60;99.90;;;;;;4841510;29;20064;-67
2022/07/30 11:52:53;;;;;;;3.17;1.90;;;24.90;99.30;;;;;;4841791;29;20069;-67
2022/07/30 11:55:31;;;;;;;3.75;2.08;;;25.00;97.30;;;;;;4843370;29;20058;-66
2022/07/30 11:57:58;;;;;;;4.15;2.28;;;25.20;95.40;;;;;;4842115;29;20058;-66
2022/07/30 12:00:46;;;;;;;4.50;2.28;;;25.20;95.70;;;;;;4842580;29;20057;-66
2022/07/30 12:03:15;;;;;;;4.18;2.25;;;25.30;96.60;;;;;;4839343;29;20061;-66
2022/07/30 12:05:42;;;;;;;3.70;1.80;;;25.40;97.50;;;;;;4840497;29;20062;-66
2022/07/30 12:08:08;;;;;;;3.38;1.80;;;25.40;94.20;;;;;;4842037;29;20069;-65
2022/07/30 12:10:34;;;;;;;2.15;1.98;;;25.40;92.30;;;;;;4842989;29;20054;-65
2022/07/30 12:13:26;;;;;;;4.03;2.40;;;25.40;90.50;;;;;;4843046;29;20054;-66
2022/07/30 12:15:52;;;;;;;2.15;1.70;;;25.10;85.10;;;;;;4839298;29;20089;-66
2022/07/30 12:18:29;;;;;;;5.18;2.05;;;25.10;91.90;;;;;;4842107;29;20092;-66
2022/07/30 12:20:57;;;;;;;5.43;2.13;;;24.90;90.40;;;;;;4840720;29;20068;-66
2022/07/30 12:23:22;;;;;;;3.35;1.90;;;25.00;89.50;;;;;;4841253;29;20096;-66
2022/07/30 12:25:48;;;;;;;3.10;2.08;;;25.00;86.90;;;;;;4841060;29;20077;-67
2022/07/30 12:28:25;;;;;;;3.00;1.80;;;24.90;83.50;;;;;;4842653;29;20496;-66
2022/07/30 12:30:52;;;;;;;3.88;1.63;;;24.90;82.80;;;;;;4857097;29;20058;-66
2022/07/30 12:33:19;;;;;;;2.45;1.83;;;25.00;83.70;;;;;;4842644;29;20137;-66
2022/07/30 12:36:22;;;;;;;3.38;1.80;;;24.90;79.20;;;;;;4842257;29;20050;-66
2022/07/30 12:38:49;;;;;;;4.20;1.88;;;24.80;75.40;;;;;;4843046;29;20352;-66
2022/07/30 12:41:14;;;;;;;5.05;1.70;;;24.70;79.90;;;;;;4839817;29;20053;-67
2022/07/30 12:43:54;;;;;;;1.90;1.65;;;24.60;76.30;;;;;;4840024;29;20061;-66
2022/07/30 12:46:22;;;;;;;3.97;1.60;;;24.60;74.90;;;;;;4840050;29;20061;-67
2022/07/30 12:48:53;;;;;;;2.45;2.03;;;24.70;76.60;;;;;;4838863;29;20061;-67
2022/07/30 12:51:19;;;;;;;4.80;1.60;;;24.70;73.40;;;;;;4839949;29;20484;-67
2022/07/30 12:53:45;;;;;;;2.20;1.40;;;24.80;73.40;;;;;;4842156;29;20094;-67
2022/07/30 12:56:15;;;;;;;1.88;1.58;;;24.90;74.00;;;;;;4841237;29;20085;-67
2022/07/30 12:58:41;;;;;;;2.45;1.50;;;24.90;67.70;;;;;;4842115;29;20057;-67
2022/07/30 13:01:08;;;;;;;1.73;1.33;;;25.00;69.00;;;;;;4841770;29;20057;-66
2022/07/30 13:03:39;;;;;;;2.67;1.55;;;25.00;67.80;;;;;;4810609;29;20057;-67
2022/07/30 13:06:19;;;;;;;3.10;1.50;;;24.90;66.90;;;;;;4821869;29;20050;-67
2022/07/30 13:08:51;;;;;;;3.60;1.50;;;24.90;66.70;;;;;;4823497;29;20477;-66
2022/07/30 13:11:18;;;;;;;2.67;1.48;;;25.00;66.50;;;;;;4822103;29;20527;-65
2022/07/30 13:13:45;;;;;;;1.48;1.27;;;25.10;66.10;;;;;;4824790;29;20062;-66
2022/07/30 13:16:11;;;;;;;2.53;1.60;;;25.00;63.20;;;;;;4824138;29;20420;-66
2022/07/30 13:18:37;;;;;;;2.20;1.40;;;25.00;62.70;;;;;;4823971;29;20066;-66
2022/07/30 13:21:05;;;;;;;4.30;1.40;;;24.90;62.80;;;;;;4822029;29;20050;-65
2022/07/30 13:23:31;;;;;;;1.52;1.38;;;24.90;64.10;;;;;;4824006;29;20065;-66